Time;durP1;ratioP1;P1;durP2;ratioP2;P2;SDS_P1;SDS_P2;PMS_P1;PMS_P2;Temp;Humidity;BMP_temperature;BMP_pressure;BME280_temperature;BME280_humidity;BME280_pressure;Samples;Min_cycle;Max_cycle;Signal;HPM_P1;HPM_P2
2023/07/15 00:00:53;;;;;;;5.30;2.80;;;19.70;99.90;;;;;;5129223;27;20487;-65
2023/07/15 00:03:19;;;;;;;4.78;2.80;;;19.70;99.90;;;;;;5127848;27;20042;-64
2023/07/15 00:05:45;;;;;;;5.45;2.83;;;19.70;99.90;;;;;;5104926;27;20035;-65
2023/07/15 00:08:11;;;;;;;5.68;2.70;;;19.70;99.90;;;;;;5113970;27;20036;-64
2023/07/15 00:10:42;;;;;;;3.83;2.50;;;19.70;99.90;;;;;;5123608;27;20034;-65
2023/07/15 00:13:16;;;;;;;5.88;2.80;;;19.70;99.90;;;;;;5113965;27;20050;-66
2023/07/15 00:15:44;;;;;;;6.97;2.70;;;19.80;99.90;;;;;;5123715;27;20442;-64
2023/07/15 00:18:11;;;;;;;7.53;3.00;;;19.80;99.90;;;;;;5128884;27;20049;-65
2023/07/15 00:20:37;;;;;;;7.85;3.00;;;19.80;99.90;;;;;;5128576;27;20046;-65
2023/07/15 00:23:13;;;;;;;7.35;2.55;;;19.80;99.90;;;;;;5126042;27;20705;-64
2023/07/15 00:25:39;;;;;;;4.60;3.05;;;19.80;99.90;;;;;;5129668;27;20042;-66
2023/07/15 00:28:05;;;;;;;4.95;3.10;;;19.80;99.90;;;;;;5129291;27;20516;-66
2023/07/15 00:30:31;;;;;;;5.15;2.65;;;19.80;99.90;;;;;;5117840;27;20051;-64
2023/07/15 00:32:57;;;;;;;4.70;2.90;;;19.80;99.90;;;;;;5124665;27;20038;-64
2023/07/15 00:35:31;;;;;;;6.55;3.33;;;19.80;99.90;;;;;;5145930;27;20120;-65
2023/07/15 00:38:00;;;;;;;7.35;3.40;;;19.70;99.90;;;;;;5118318;27;20375;-65
2023/07/15 00:40:27;;;;;;;4.88;2.58;;;19.70;99.90;;;;;;5125166;28;20118;-67
2023/07/15 00:43:30;;;;;;;7.97;3.00;;;19.70;99.90;;;;;;5122500;27;20039;-66
2023/07/15 00:46:18;;;;;;;4.60;3.03;;;19.70;99.90;;;;;;5130680;27;20055;-65
2023/07/15 00:49:09;;;;;;;5.25;2.90;;;19.70;99.90;;;;;;5099944;27;20093;-66
2023/07/15 00:51:39;;;;;;;6.57;2.70;;;19.70;99.90;;;;;;5124679;27;20240;-64
2023/07/15 00:54:06;;;;;;;4.20;2.63;;;19.70;99.90;;;;;;5115356;27;20481;-65
2023/07/15 00:56:33;;;;;;;5.68;2.65;;;19.70;99.90;;;;;;5130873;27;20117;-64
2023/07/15 00:58:59;;;;;;;6.85;2.75;;;19.70;99.90;;;;;;5123795;27;20122;-65
2023/07/15 01:01:25;;;;;;;4.25;2.47;;;19.70;99.90;;;;;;5116385;27;20126;-65
2023/07/15 01:03:51;;;;;;;3.65;2.60;;;19.70;99.90;;;;;;5106270;28;20051;-64
2023/07/15 01:06:16;;;;;;;4.35;2.45;;;19.70;99.90;;;;;;5127012;27;20046;-65
2023/07/15 01:08:42;;;;;;;5.03;2.67;;;19.80;99.90;;;;;;5127347;27;20414;-65
2023/07/15 01:11:10;;;;;;;5.20;3.47;;;19.80;99.90;;;;;;5122920;27;20094;-64
2023/07/15 01:13:36;;;;;;;4.80;2.40;;;19.80;99.90;;;;;;5126910;28;20047;-65
2023/07/15 01:16:01;;;;;;;3.80;2.38;;;19.90;99.90;;;;;;5099364;28;20054;-66
2023/07/15 01:18:31;;;;;;;4.85;2.30;;;19.90;99.90;;;;;;5125084;27;20045;-65
2023/07/15 01:21:00;;;;;;;4.38;2.30;;;19.90;99.90;;;;;;5123250;28;20568;-64
2023/07/15 01:23:29;;;;;;;5.78;2.50;;;20.00;99.90;;;;;;5121448;27;20039;-65
2023/07/15 01:25:56;;;;;;;4.30;2.20;;;20.00;99.90;;;;;;5149376;27;21162;-66
2023/07/15 01:28:22;;;;;;;5.68;2.10;;;20.00;99.90;;;;;;5110271;27;20058;-64
2023/07/15 01:30:48;;;;;;;3.97;1.98;;;20.10;99.90;;;;;;5131092;27;20043;-64
2023/07/15 01:33:18;;;;;;;4.07;2.22;;;20.10;99.90;;;;;;5149884;27;20046;-64
2023/07/15 01:35:48;;;;;;;3.72;2.25;;;20.10;99.90;;;;;;5144879;27;20196;-64
2023/07/15 01:38:14;;;;;;;5.30;2.08;;;20.10;99.90;;;;;;5130040;27;20160;-65
2023/07/15 01:40:40;;;;;;;4.63;2.00;;;20.20;99.90;;;;;;5125671;27;20038;-64
2023/07/15 01:43:06;;;;;;;7.13;2.45;;;20.20;99.90;;;;;;5128040;27;20361;-65
2023/07/15 01:45:31;;;;;;;4.65;2.17;;;20.20;99.90;;;;;;5142034;27;20130;-64
2023/07/15 01:47:57;;;;;;;3.70;2.10;;;20.20;99.90;;;;;;5136304;27;20047;-64
2023/07/15 01:50:22;;;;;;;4.90;2.00;;;20.20;99.90;;;;;;5136397;27;20366;-64
2023/07/15 01:52:48;;;;;;;4.45;2.20;;;20.20;99.90;;;;;;5125366;27;20034;-65
2023/07/15 01:55:14;;;;;;;5.82;2.40;;;20.20;99.90;;;;;;5130791;27;20046;-63
2023/07/15 01:57:40;;;;;;;2.75;2.05;;;20.20;99.90;;;;;;5123398;27;20046;-65
2023/07/15 02:00:06;;;;;;;4.55;2.00;;;20.20;99.90;;;;;;5153851;27;20034;-65
2023/07/15 02:02:32;;;;;;;6.30;2.60;;;20.10;99.90;;;;;;5126157;27;20114;-65
2023/07/15 02:04:57;;;;;;;5.22;3.03;;;20.10;99.90;;;;;;5134463;27;20427;-64
2023/07/15 02:07:23;;;;;;;3.15;2.42;;;20.00;99.90;;;;;;5125357;27;20114;-64
2023/07/15 02:09:48;;;;;;;4.07;2.30;;;20.00;99.90;;;;;;5137655;27;20105;-65
2023/07/15 02:12:14;;;;;;;3.50;2.25;;;20.00;99.90;;;;;;5099201;27;20043;-65
2023/07/15 02:14:40;;;;;;;4.43;2.70;;;19.90;99.90;;;;;;5115426;27;20046;-63
2023/07/15 02:17:06;;;;;;;5.93;2.50;;;19.90;99.90;;;;;;5129449;27;20105;-64
2023/07/15 02:19:31;;;;;;;3.75;2.00;;;19.90;99.90;;;;;;5129923;27;20389;-64
2023/07/15 02:21:58;;;;;;;5.32;2.28;;;19.90;99.90;;;;;;5135371;27;20026;-65
2023/07/15 02:24:24;;;;;;;5.07;2.40;;;20.00;99.90;;;;;;5120953;27;20049;-65
2023/07/15 02:26:49;;;;;;;3.60;1.90;;;19.90;99.90;;;;;;5120356;27;20031;-65
2023/07/15 02:29:15;;;;;;;4.07;2.28;;;20.00;99.90;;;;;;5135518;27;20047;-65
2023/07/15 02:31:42;;;;;;;3.00;1.95;;;19.90;99.90;;;;;;5152866;27;20085;-64
2023/07/15 02:34:08;;;;;;;4.55;2.28;;;19.90;99.90;;;;;;5129498;27;20103;-62
2023/07/15 02:36:35;;;;;;;5.72;2.00;;;19.90;99.90;;;;;;5123945;27;20405;-65
2023/07/15 02:39:02;;;;;;;3.08;2.15;;;19.90;99.90;;;;;;5138710;27;20043;-64
2023/07/15 02:41:28;;;;;;;4.65;2.20;;;19.90;99.90;;;;;;5133154;27;20034;-63
2023/07/15 02:43:54;;;;;;;3.70;2.17;;;19.80;99.90;;;;;;5153157;27;20401;-64
2023/07/15 02:46:19;;;;;;;4.78;2.20;;;19.80;99.90;;;;;;5134676;27;20504;-64
2023/07/15 02:48:45;;;;;;;4.60;2.10;;;19.80;99.90;;;;;;5120899;27;20039;-64
2023/07/15 02:51:11;;;;;;;2.45;2.05;;;19.80;99.90;;;;;;5119958;27;20038;-64
2023/07/15 02:53:39;;;;;;;3.05;2.00;;;19.70;99.90;;;;;;5148551;27;20043;-64
2023/07/15 02:56:05;;;;;;;10.27;2.22;;;19.70;99.90;;;;;;5122906;27;20049;-64
2023/07/15 02:58:31;;;;;;;4.95;1.92;;;19.70;99.90;;;;;;5126361;27;20115;-64
2023/07/15 03:00:57;;;;;;;9.20;2.13;;;19.70;99.90;;;;;;5118515;27;20122;-64
2023/07/15 03:03:23;;;;;;;6.18;2.10;;;19.60;99.90;;;;;;5113873;27;20035;-65
2023/07/15 03:05:49;;;;;;;3.88;2.15;;;19.70;99.90;;;;;;5115545;27;20046;-64
2023/07/15 03:08:15;;;;;;;5.55;2.28;;;19.60;99.90;;;;;;5121460;27;20051;-65
2023/07/15 03:10:45;;;;;;;4.05;1.80;;;19.60;99.90;;;;;;5120291;27;20035;-64
2023/07/15 03:13:11;;;;;;;3.38;2.22;;;19.60;99.90;;;;;;5116048;27;20518;-63
2023/07/15 03:15:37;;;;;;;4.15;2.10;;;19.60;99.90;;;;;;5125286;27;20042;-64
2023/07/15 03:18:03;;;;;;;5.57;2.00;;;19.50;99.90;;;;;;5114127;27;20084;-64
2023/07/15 03:20:30;;;;;;;5.57;2.38;;;19.50;99.90;;;;;;5114336;27;20049;-63
2023/07/15 03:22:56;;;;;;;5.05;2.08;;;19.40;99.90;;;;;;5105305;27;20125;-66
2023/07/15 03:25:22;;;;;;;5.68;1.98;;;19.40;99.90;;;;;;5120458;27;20371;-64
2023/07/15 03:27:49;;;;;;;3.45;2.10;;;19.40;99.90;;;;;;5119356;27;20042;-63
2023/07/15 03:30:15;;;;;;;3.35;2.28;;;19.30;99.90;;;;;;5132648;27;20086;-63
2023/07/15 03:32:41;;;;;;;3.58;1.90;;;19.30;99.90;;;;;;5117673;27;20107;-65
2023/07/15 03:35:12;;;;;;;4.97;2.08;;;19.30;99.90;;;;;;5120482;27;21680;-65
2023/07/15 03:37:39;;;;;;;5.18;1.98;;;19.20;99.90;;;;;;5127542;27;20420;-64
2023/07/15 03:40:07;;;;;;;5.07;2.15;;;19.20;99.90;;;;;;5134709;27;20050;-64
2023/07/15 03:42:34;;;;;;;3.25;1.90;;;19.20;99.90;;;;;;5121741;27;20046;-64
2023/07/15 03:44:59;;;;;;;4.55;2.20;;;19.20;99.90;;;;;;5120866;27;20121;-64
2023/07/15 03:47:25;;;;;;;3.05;1.90;;;19.10;99.90;;;;;;5121597;27;20122;-65
2023/07/15 03:49:51;;;;;;;3.63;1.90;;;19.10;99.90;;;;;;5113125;27;20039;-64
2023/07/15 03:52:16;;;;;;;6.38;2.00;;;19.10;99.90;;;;;;5129402;27;20022;-65
2023/07/15 03:54:43;;;;;;;4.43;2.28;;;19.00;99.90;;;;;;5121174;27;20041;-64
2023/07/15 03:57:09;;;;;;;4.18;1.88;;;19.00;99.90;;;;;;5120863;27;20053;-64
2023/07/15 03:59:35;;;;;;;6.35;2.00;;;18.90;99.90;;;;;;5132533;27;20039;-64
2023/07/15 04:02:01;;;;;;;2.70;1.92;;;18.90;99.90;;;;;;5125068;27;20046;-64
2023/07/15 04:04:27;;;;;;;3.47;2.40;;;18.90;99.90;;;;;;5114537;27;20062;-64
2023/07/15 04:06:53;;;;;;;3.92;1.90;;;18.90;99.90;;;;;;5120215;27;20447;-65
2023/07/15 04:09:19;;;;;;;4.13;2.05;;;18.90;99.90;;;;;;5115374;27;20046;-64
2023/07/15 04:11:44;;;;;;;3.90;1.73;;;18.90;99.90;;;;;;5125437;27;20050;-64
2023/07/15 04:14:12;;;;;;;4.07;1.95;;;18.90;99.90;;;;;;5131081;27;20046;-65
2023/07/15 04:16:38;;;;;;;5.90;2.38;;;19.00;99.90;;;;;;5112699;27;20091;-64
2023/07/15 04:19:04;;;;;;;3.42;1.70;;;19.00;99.90;;;;;;5115400;27;20043;-64
2023/07/15 04:21:29;;;;;;;3.05;1.95;;;19.00;99.90;;;;;;5122693;27;20084;-64
2023/07/15 04:23:55;;;;;;;6.03;2.13;;;19.00;99.90;;;;;;5143817;27;20431;-65
2023/07/15 04:26:25;;;;;;;4.22;1.80;;;19.00;99.90;;;;;;5122713;27;20042;-64
2023/07/15 04:28:54;;;;;;;6.38;2.10;;;19.00;99.90;;;;;;5120996;27;20071;-65
2023/07/15 04:31:20;;;;;;;5.28;2.30;;;19.00;99.90;;;;;;5124285;27;20034;-64
2023/07/15 04:33:46;;;;;;;5.78;2.08;;;19.10;99.90;;;;;;5126163;27;20156;-66
2023/07/15 04:36:13;;;;;;;2.90;2.10;;;19.10;99.90;;;;;;5119551;27;20042;-64
2023/07/15 04:38:39;;;;;;;5.57;2.10;;;19.20;99.90;;;;;;5122332;27;20389;-65
2023/07/15 04:41:05;;;;;;;8.50;2.10;;;19.20;99.90;;;;;;5114633;27;20051;-65
2023/07/15 04:43:31;;;;;;;5.35;1.98;;;19.20;99.90;;;;;;5137552;27;20031;-65
2023/07/15 04:45:57;;;;;;;3.47;2.10;;;19.20;99.90;;;;;;5118823;27;20405;-65
2023/07/15 04:48:23;;;;;;;4.38;2.00;;;19.30;99.90;;;;;;5133319;27;20053;-65
2023/07/15 04:50:50;;;;;;;3.60;2.28;;;19.30;99.90;;;;;;5141721;27;20134;-65
2023/07/15 04:53:16;;;;;;;4.03;2.30;;;19.40;99.90;;;;;;5131197;27;20046;-65
2023/07/15 04:55:42;;;;;;;6.93;2.20;;;19.40;99.90;;;;;;5100877;27;20103;-66
2023/07/15 04:58:09;;;;;;;4.18;2.03;;;19.40;99.90;;;;;;5124122;27;20117;-65
2023/07/15 05:00:36;;;;;;;7.45;2.33;;;19.50;99.90;;;;;;5136645;27;20493;-64
2023/07/15 05:03:04;;;;;;;8.48;2.20;;;19.60;99.90;;;;;;5128397;27;20046;-65
2023/07/15 05:05:30;;;;;;;3.35;1.90;;;19.70;99.90;;;;;;5106917;27;20113;-64
2023/07/15 05:08:00;;;;;;;2.78;2.05;;;19.80;99.90;;;;;;5125935;27;20117;-64
2023/07/15 05:10:26;;;;;;;3.58;1.90;;;19.80;99.90;;;;;;5119313;27;20039;-65
2023/07/15 05:12:51;;;;;;;5.68;1.95;;;19.90;99.90;;;;;;5125083;27;20039;-64
2023/07/15 05:15:17;;;;;;;4.50;2.10;;;20.00;99.90;;;;;;5120567;27;20039;-64
2023/07/15 05:17:44;;;;;;;6.25;2.50;;;20.10;99.90;;;;;;5133212;27;20035;-63
2023/07/15 05:20:10;;;;;;;5.63;2.08;;;20.20;99.90;;;;;;5155359;27;20038;-65
2023/07/15 05:22:36;;;;;;;6.55;2.10;;;20.20;99.90;;;;;;5131240;27;20030;-65
2023/07/15 05:25:01;;;;;;;3.95;2.20;;;20.30;99.90;;;;;;5132433;27;20485;-64
2023/07/15 05:27:27;;;;;;;3.78;2.55;;;20.40;99.90;;;;;;5130023;27;20063;-64
2023/07/15 05:29:53;;;;;;;3.78;2.35;;;20.60;99.90;;;;;;5127774;27;20104;-64
2023/07/15 05:32:18;;;;;;;6.22;2.25;;;20.60;99.90;;;;;;5133545;27;20481;-66
2023/07/15 05:34:44;;;;;;;2.88;2.00;;;20.70;99.90;;;;;;5128430;27;20776;-64
2023/07/15 05:37:10;;;;;;;4.10;2.10;;;20.90;99.90;;;;;;5119348;27;20038;-65
2023/07/15 05:39:35;;;;;;;3.63;1.90;;;21.00;99.90;;;;;;5125109;27;20049;-64
2023/07/15 05:42:01;;;;;;;7.25;2.38;;;21.10;99.90;;;;;;5117905;27;20133;-65
2023/07/15 05:44:26;;;;;;;5.60;1.90;;;21.20;99.90;;;;;;5120624;27;20408;-66
2023/07/15 05:46:52;;;;;;;4.15;2.22;;;21.30;99.90;;;;;;5112558;27;20119;-65
2023/07/15 05:49:18;;;;;;;4.05;2.05;;;21.40;99.90;;;;;;5129179;27;20814;-66
2023/07/15 05:51:43;;;;;;;4.38;2.00;;;21.50;99.90;;;;;;5128046;27;20118;-66
2023/07/15 05:54:09;;;;;;;4.82;2.38;;;21.50;99.90;;;;;;5118774;27;20087;-66
2023/07/15 05:56:34;;;;;;;4.65;1.95;;;21.60;99.90;;;;;;5124375;27;20443;-64
2023/07/15 05:59:00;;;;;;;3.25;1.88;;;21.80;99.90;;;;;;5101218;27;20051;-65
2023/07/15 06:01:26;;;;;;;5.75;2.15;;;21.90;99.90;;;;;;5103931;27;20042;-65
2023/07/15 06:03:51;;;;;;;4.57;2.40;;;21.90;99.90;;;;;;5133903;27;20038;-65
2023/07/15 06:06:17;;;;;;;2.53;2.20;;;22.00;99.90;;;;;;5142726;27;20119;-65
2023/07/15 06:08:42;;;;;;;4.05;2.25;;;22.10;99.90;;;;;;5130843;27;20031;-65
2023/07/15 06:11:09;;;;;;;3.30;2.00;;;22.30;99.90;;;;;;5126703;27;20057;-64
2023/07/15 06:13:35;;;;;;;3.42;1.90;;;22.30;99.90;;;;;;5120445;27;20047;-65
2023/07/15 06:16:00;;;;;;;4.13;2.15;;;22.40;99.90;;;;;;5140960;27;20096;-65
2023/07/15 06:18:26;;;;;;;4.20;2.30;;;22.40;99.90;;;;;;5122225;27;20044;-66
2023/07/15 06:20:52;;;;;;;5.80;2.30;;;22.40;99.90;;;;;;5137462;27;20466;-65
2023/07/15 06:23:18;;;;;;;5.15;2.53;;;22.40;99.90;;;;;;5128847;27;20066;-65
2023/07/15 06:25:43;;;;;;;4.15;2.35;;;22.50;99.90;;;;;;5133546;27;20042;-65
2023/07/15 06:28:09;;;;;;;7.95;2.55;;;22.60;99.90;;;;;;5116450;27;20058;-63
2023/07/15 06:30:34;;;;;;;4.05;2.22;;;22.60;99.90;;;;;;5116925;27;20046;-64
2023/07/15 06:33:00;;;;;;;3.60;2.45;;;22.60;99.90;;;;;;5114302;27;20054;-64
2023/07/15 06:35:26;;;;;;;4.35;2.38;;;22.60;99.90;;;;;;5118874;27;20389;-65
2023/07/15 06:37:51;;;;;;;5.18;2.20;;;22.60;99.90;;;;;;5151349;27;20042;-64
2023/07/15 06:40:18;;;;;;;4.85;2.10;;;22.60;99.90;;;;;;5124154;27;20469;-64
2023/07/15 06:42:45;;;;;;;3.83;2.22;;;22.60;99.90;;;;;;5121759;27;20087;-64
2023/07/15 06:45:12;;;;;;;3.92;2.38;;;22.70;99.90;;;;;;5115510;27;20051;-64
2023/07/15 06:47:38;;;;;;;4.55;2.40;;;22.70;99.90;;;;;;5111876;27;20049;-64
2023/07/15 06:50:04;;;;;;;4.10;2.25;;;22.80;99.90;;;;;;5151011;27;20053;-65
2023/07/15 06:52:30;;;;;;;6.57;2.72;;;22.70;99.90;;;;;;5128492;27;20046;-63
2023/07/15 06:54:55;;;;;;;5.50;2.47;;;22.90;99.90;;;;;;5129067;27;20040;-65
2023/07/15 06:57:21;;;;;;;3.78;2.20;;;23.00;99.90;;;;;;5122656;27;20134;-64
2023/07/15 06:59:47;;;;;;;5.40;2.30;;;23.00;99.90;;;;;;5146346;27;20842;-65
2023/07/15 07:02:13;;;;;;;5.90;2.00;;;23.10;99.90;;;;;;5118706;27;20431;-64
2023/07/15 07:04:39;;;;;;;4.18;2.20;;;23.00;99.90;;;;;;5116428;27;20061;-64
2023/07/15 07:07:05;;;;;;;3.92;1.80;;;22.90;99.90;;;;;;5134503;27;20505;-64
2023/07/15 07:09:31;;;;;;;3.20;1.80;;;23.00;99.90;;;;;;5133127;27;20039;-64
2023/07/15 07:11:58;;;;;;;5.47;1.88;;;23.00;99.90;;;;;;5130334;27;20053;-65
2023/07/15 07:14:24;;;;;;;5.07;2.03;;;23.10;99.90;;;;;;5118177;27;20401;-66
2023/07/15 07:16:49;;;;;;;5.90;2.20;;;23.30;99.90;;;;;;5118131;27;20039;-65
2023/07/15 07:19:15;;;;;;;4.82;2.10;;;23.20;99.90;;;;;;5124886;27;20035;-65
2023/07/15 07:21:42;;;;;;;3.67;1.98;;;23.40;99.90;;;;;;5117851;27;20367;-65
2023/07/15 07:24:09;;;;;;;2.95;2.22;;;23.40;99.90;;;;;;5118676;27;20087;-64
2023/07/15 07:26:35;;;;;;;4.82;1.92;;;23.50;99.90;;;;;;5117762;27;20034;-64
2023/07/15 07:29:01;;;;;;;2.90;1.98;;;23.60;99.90;;;;;;5121287;27;20042;-64
2023/07/15 07:31:27;;;;;;;7.40;2.10;;;23.70;99.90;;;;;;5122546;27;20096;-64
2023/07/15 07:33:53;;;;;;;5.55;1.90;;;23.70;99.90;;;;;;5133065;27;20501;-65
2023/07/15 07:36:19;;;;;;;4.47;2.55;;;23.70;99.90;;;;;;5147083;27;20046;-65
2023/07/15 07:38:45;;;;;;;3.97;2.10;;;23.60;99.90;;;;;;5116096;27;20031;-65
2023/07/15 07:41:12;;;;;;;3.55;2.20;;;23.70;99.90;;;;;;5119903;27;20065;-65
2023/07/15 07:43:39;;;;;;;3.72;2.30;;;23.80;99.90;;;;;;5124085;27;20043;-66
2023/07/15 07:46:06;;;;;;;5.05;2.13;;;24.00;99.90;;;;;;5132093;27;20138;-66
2023/07/15 07:48:32;;;;;;;4.53;2.60;;;24.10;99.90;;;;;;5124274;27;20095;-66
2023/07/15 07:50:59;;;;;;;4.32;2.45;;;24.20;99.90;;;;;;5120372;27;20031;-66
2023/07/15 07:53:25;;;;;;;5.68;2.53;;;24.20;99.90;;;;;;5113575;27;20035;-65
2023/07/15 07:55:51;;;;;;;4.55;2.00;;;24.20;99.90;;;;;;5118718;27;20055;-66
2023/07/15 07:58:17;;;;;;;5.65;2.20;;;24.10;99.90;;;;;;5113029;27;20035;-65
2023/07/15 08:00:43;;;;;;;7.57;2.05;;;24.00;99.90;;;;;;5128436;27;20118;-66
2023/07/15 08:03:09;;;;;;;2.45;2.00;;;24.10;99.90;;;;;;5132317;27;20054;-65
2023/07/15 08:05:41;;;;;;;3.80;2.17;;;24.00;99.90;;;;;;5125269;27;20043;-64
2023/07/15 08:08:07;;;;;;;5.00;2.10;;;24.10;99.90;;;;;;5116469;27;20035;-64
2023/07/15 08:10:32;;;;;;;3.95;1.80;;;24.20;99.90;;;;;;5117229;27;20119;-65
2023/07/15 08:12:58;;;;;;;3.75;2.05;;;24.40;99.90;;;;;;5120517;27;20042;-66
2023/07/15 08:15:24;;;;;;;2.65;1.65;;;24.40;99.90;;;;;;5134480;27;20495;-66
2023/07/15 08:17:50;;;;;;;3.70;2.38;;;24.40;99.90;;;;;;5113307;27;20050;-66
2023/07/15 08:20:15;;;;;;;4.15;2.20;;;24.60;99.90;;;;;;5125309;27;20043;-65
2023/07/15 08:22:41;;;;;;;4.28;1.90;;;24.60;99.90;;;;;;5105882;27;20074;-65
2023/07/15 08:25:07;;;;;;;4.93;2.10;;;24.80;99.90;;;;;;5121675;27;20506;-66
2023/07/15 08:27:32;;;;;;;3.78;1.80;;;24.90;99.90;;;;;;5119872;27;20035;-64
2023/07/15 08:29:58;;;;;;;3.38;2.10;;;25.10;99.90;;;;;;5112425;27;20500;-65
2023/07/15 08:32:24;;;;;;;3.70;1.88;;;25.40;99.90;;;;;;5118032;27;20042;-66
2023/07/15 08:35:04;;;;;;;2.65;1.70;;;25.30;99.90;;;;;;5132175;27;20049;-66
2023/07/15 08:37:29;;;;;;;2.90;1.88;;;25.30;99.90;;;;;;5125797;27;20385;-65
2023/07/15 08:39:55;;;;;;;2.85;1.52;;;25.10;99.90;;;;;;5112670;27;20043;-66
2023/07/15 08:42:23;;;;;;;6.07;2.17;;;24.80;99.90;;;;;;5099974;27;20055;-66
2023/07/15 08:44:51;;;;;;;3.10;2.10;;;24.60;99.90;;;;;;5132902;27;20054;-66
2023/07/15 08:47:19;;;;;;;6.22;2.08;;;24.20;99.90;;;;;;5133257;27;20057;-65
2023/07/15 08:49:46;;;;;;;3.25;2.25;;;24.00;99.90;;;;;;5132857;27;20083;-67
2023/07/15 08:52:13;;;;;;;4.28;2.45;;;24.00;99.90;;;;;;5130376;27;20103;-66
2023/07/15 08:54:39;;;;;;;3.88;2.33;;;23.90;99.90;;;;;;5141364;27;20031;-64
2023/07/15 08:57:07;;;;;;;3.45;2.10;;;23.90;99.90;;;;;;5112169;27;20043;-65
2023/07/15 08:59:32;;;;;;;2.15;1.92;;;23.90;99.90;;;;;;5120729;27;20050;-65
2023/07/15 09:01:59;;;;;;;3.90;2.20;;;24.00;99.90;;;;;;5150742;27;20038;-66
2023/07/15 09:04:26;;;;;;;2.40;1.90;;;24.00;99.90;;;;;;5122238;27;20043;-67
2023/07/15 09:06:54;;;;;;;4.13;1.88;;;24.00;99.90;;;;;;5120613;27;20039;-65
2023/07/15 09:09:33;;;;;;;2.90;1.80;;;24.10;99.90;;;;;;5128297;27;20493;-66
2023/07/15 09:12:11;;;;;;;3.92;1.95;;;24.40;99.90;;;;;;5120767;27;20046;-65
2023/07/15 09:14:46;;;;;;;3.92;2.05;;;24.60;99.90;;;;;;5120166;27;20030;-66
2023/07/15 09:17:20;;;;;;;5.07;1.98;;;24.90;99.90;;;;;;5140419;27;20041;-66
2023/07/15 09:19:47;;;;;;;3.35;2.10;;;25.10;99.90;;;;;;5122885;27;20084;-66
2023/07/15 09:22:12;;;;;;;3.63;2.40;;;25.20;99.90;;;;;;5123860;27;20114;-65
2023/07/15 09:24:39;;;;;;;2.83;2.00;;;25.40;99.90;;;;;;5120247;27;20032;-65
2023/07/15 09:27:06;;;;;;;2.40;2.13;;;25.60;99.90;;;;;;5098873;27;20051;-65
2023/07/15 09:29:33;;;;;;;2.40;1.83;;;25.90;99.90;;;;;;5117412;27;20200;-66
2023/07/15 09:31:59;;;;;;;4.72;2.20;;;25.80;99.90;;;;;;5119849;27;20488;-66
2023/07/15 09:34:25;;;;;;;3.97;2.47;;;25.60;99.90;;;;;;5123910;28;20031;-65
2023/07/15 09:36:52;;;;;;;4.75;1.85;;;25.40;99.90;;;;;;5123730;27;20054;-66
2023/07/15 09:39:22;;;;;;;2.63;2.15;;;25.20;99.90;;;;;;5126712;27;20142;-64
2023/07/15 09:42:05;;;;;;;2.60;2.10;;;25.00;99.90;;;;;;5121454;27;20134;-64
2023/07/15 09:44:33;;;;;;;3.65;2.13;;;24.80;99.90;;;;;;5119358;27;20114;-66
2023/07/15 09:47:01;;;;;;;3.60;2.00;;;24.60;99.90;;;;;;5121043;27;20055;-64
2023/07/15 09:49:26;;;;;;;4.07;2.00;;;24.90;99.90;;;;;;5124742;27;20112;-66
2023/07/15 09:51:52;;;;;;;3.40;2.03;;;25.00;99.90;;;;;;5142487;27;20038;-65
2023/07/15 09:54:21;;;;;;;3.17;2.10;;;25.00;99.90;;;;;;5117932;27;20039;-66
2023/07/15 09:56:49;;;;;;;3.22;2.45;;;25.10;99.90;;;;;;5123873;27;20117;-66
2023/07/15 09:59:21;;;;;;;2.80;2.10;;;25.30;99.90;;;;;;5130476;27;20051;-65
2023/07/15 10:01:49;;;;;;;2.65;1.90;;;25.70;99.90;;;;;;5130381;27;20035;-65
2023/07/15 10:04:35;;;;;;;4.15;2.55;;;25.80;99.90;;;;;;5130777;27;20882;-65
2023/07/15 10:07:02;;;;;;;2.78;2.03;;;25.60;99.90;;;;;;5122767;27;20449;-66
2023/07/15 10:09:30;;;;;;;2.55;1.40;;;25.60;99.90;;;;;;5120458;27;20080;-66
2023/07/15 10:11:57;;;;;;;3.03;1.40;;;25.60;99.90;;;;;;5109402;27;20046;-65
2023/07/15 10:14:23;;;;;;;2.00;1.55;;;25.70;99.90;;;;;;5125225;27;20049;-64
2023/07/15 10:17:09;;;;;;;3.00;1.58;;;25.80;99.90;;;;;;5127055;27;20054;-65
2023/07/15 10:19:50;;;;;;;4.05;1.40;;;26.00;99.90;;;;;;5126456;27;20042;-65
2023/07/15 10:22:21;;;;;;;1.90;1.15;;;26.10;99.70;;;;;;5133943;27;20047;-64
2023/07/15 10:24:57;;;;;;;2.20;0.90;;;26.30;98.50;;;;;;5130158;27;20042;-65
2023/07/15 10:27:30;;;;;;;3.00;1.13;;;26.30;98.30;;;;;;5135616;27;20292;-66
2023/07/15 10:30:17;;;;;;;1.60;1.05;;;26.30;98.20;;;;;;5149154;27;20459;-65
2023/07/15 10:32:59;;;;;;;2.13;1.02;;;26.60;97.50;;;;;;5110314;27;20027;-65
2023/07/15 10:35:29;;;;;;;3.40;1.00;;;26.80;96.80;;;;;;5119306;27;20035;-65
2023/07/15 10:38:23;;;;;;;2.05;1.10;;;26.80;97.20;;;;;;5115932;27;20378;-65
2023/07/15 10:40:57;;;;;;;1.38;0.90;;;26.60;95.90;;;;;;5109256;27;20024;-64
2023/07/15 10:43:34;;;;;;;2.10;1.25;;;26.50;96.60;;;;;;5130914;27;20053;-64
2023/07/15 10:46:05;;;;;;;2.03;1.20;;;26.70;97.60;;;;;;5118106;27;20081;-64
2023/07/15 10:48:30;;;;;;;1.20;1.10;;;26.70;97.40;;;;;;5112643;27;20505;-65
2023/07/15 10:50:59;;;;;;;2.70;1.13;;;26.70;97.20;;;;;;5123956;27;20035;-66
2023/07/15 10:53:27;;;;;;;2.08;0.80;;;26.40;97.60;;;;;;5123482;27;20393;-65
2023/07/15 10:56:01;;;;;;;2.50;1.13;;;26.30;97.40;;;;;;5116547;27;20047;-66
2023/07/15 10:58:27;;;;;;;6.25;2.55;;;26.10;97.80;;;;;;5115858;27;20067;-65
2023/07/15 11:01:00;;;;;;;2.08;1.00;;;26.00;98.20;;;;;;5111784;28;20089;-66
2023/07/15 11:03:27;;;;;;;2.17;0.98;;;26.00;98.60;;;;;;5125748;27;20039;-66
2023/07/15 11:06:01;;;;;;;1.67;1.08;;;26.00;98.60;;;;;;5118654;27;20031;-65
2023/07/15 11:08:28;;;;;;;1.60;1.10;;;25.90;98.90;;;;;;5131449;27;20039;-65
2023/07/15 11:11:12;;;;;;;2.05;1.00;;;26.30;98.50;;;;;;5123587;27;20035;-65
2023/07/15 11:13:39;;;;;;;3.17;1.10;;;26.80;98.80;;;;;;5123255;27;20458;-65
2023/07/15 11:16:05;;;;;;;3.30;1.10;;;27.00;98.00;;;;;;5120342;27;20110;-65
2023/07/15 11:18:31;;;;;;;5.95;1.25;;;27.20;97.90;;;;;;5125851;27;20035;-65
2023/07/15 11:20:58;;;;;;;2.75;1.15;;;27.10;97.50;;;;;;5126104;27;20105;-65
2023/07/15 11:23:28;;;;;;;1.90;1.30;;;27.00;97.60;;;;;;5118719;27;20080;-65
2023/07/15 11:25:54;;;;;;;2.92;1.27;;;26.90;97.70;;;;;;5118653;27;20081;-65
2023/07/15 11:28:20;;;;;;;4.88;2.05;;;26.70;97.90;;;;;;5113771;27;20047;-65
2023/07/15 11:30:47;;;;;;;2.17;1.17;;;26.50;98.20;;;;;;5111469;27;20118;-65
2023/07/15 11:33:13;;;;;;;4.88;1.20;;;26.30;98.70;;;;;;5093653;28;20046;-66
2023/07/15 11:35:41;;;;;;;4.20;1.40;;;26.10;98.50;;;;;;5129461;27;20039;-65
2023/07/15 11:38:13;;;;;;;4.13;1.40;;;25.90;98.80;;;;;;5122138;27;20043;-65
2023/07/15 11:40:59;;;;;;;5.60;1.30;;;25.80;98.80;;;;;;5116633;27;20464;-66
2023/07/15 11:43:27;;;;;;;4.47;1.40;;;25.60;99.30;;;;;;5098886;27;20051;-66
2023/07/15 11:45:56;;;;;;;4.53;1.30;;;25.50;99.20;;;;;;5112938;27;20055;-65
2023/07/15 11:48:27;;;;;;;2.85;1.27;;;25.40;99.10;;;;;;5117571;27;20047;-65
2023/07/15 11:51:11;;;;;;;5.32;1.30;;;25.40;99.30;;;;;;5111643;27;20035;-66
2023/07/15 11:53:41;;;;;;;2.92;1.30;;;25.40;99.50;;;;;;5109842;28;20501;-65
2023/07/15 11:56:07;;;;;;;4.88;1.38;;;25.50;99.90;;;;;;5127707;27;20179;-66
2023/07/15 11:58:53;;;;;;;5.55;1.27;;;25.50;99.70;;;;;;5124006;27;20124;-65
2023/07/15 12:01:25;;;;;;;1.92;1.23;;;25.70;99.90;;;;;;5119008;27;20553;-66
2023/07/15 12:03:52;;;;;;;1.92;1.20;;;25.80;99.90;;;;;;5123033;27;20389;-66
2023/07/15 12:06:22;;;;;;;3.20;1.77;;;25.80;99.80;;;;;;5116789;27;20058;-67
2023/07/15 12:09:10;;;;;;;3.70;1.40;;;25.80;99.50;;;;;;5103003;27;20035;-66
2023/07/15 12:11:36;;;;;;;2.53;1.33;;;25.80;99.40;;;;;;5130460;27;20035;-66
2023/07/15 12:14:04;;;;;;;4.78;1.60;;;25.80;99.20;;;;;;5128447;27;20046;-66
2023/07/15 12:16:31;;;;;;;4.68;1.38;;;25.80;99.00;;;;;;5115819;27;20117;-65
2023/07/15 12:18:59;;;;;;;1.75;1.30;;;26.00;99.20;;;;;;5122312;27;20047;-64
2023/07/15 12:21:25;;;;;;;3.20;1.75;;;26.10;99.10;;;;;;5120669;27;20075;-65
2023/07/15 12:23:50;;;;;;;4.45;1.30;;;26.20;99.10;;;;;;5098939;27;20050;-66
2023/07/15 12:26:18;;;;;;;3.47;1.13;;;26.20;98.90;;;;;;5107241;27;20834;-65
2023/07/15 12:28:44;;;;;;;4.68;1.60;;;26.30;98.30;;;;;;5112032;27;20122;-66
2023/07/15 12:31:10;;;;;;;3.22;1.20;;;26.40;98.50;;;;;;5120967;27;20031;-66
2023/07/15 12:33:35;;;;;;;2.80;1.27;;;26.30;97.80;;;;;;5123861;27;20047;-66
2023/07/15 12:36:02;;;;;;;2.55;1.30;;;26.10;97.70;;;;;;5114466;27;20420;-65
2023/07/15 12:38:28;;;;;;;4.65;1.42;;;26.10;97.80;;;;;;5121354;27;20088;-66
2023/07/15 12:40:54;;;;;;;2.55;1.27;;;26.10;97.70;;;;;;5122929;27;20039;-66
2023/07/15 12:43:20;;;;;;;3.22;1.40;;;26.10;97.70;;;;;;5105029;28;20051;-65
2023/07/15 12:45:47;;;;;;;1.23;1.13;;;26.10;97.40;;;;;;5109059;28;20081;-66
2023/07/15 12:48:12;;;;;;;2.75;1.30;;;26.30;97.20;;;;;;5109065;28;20486;-66
2023/07/15 12:50:38;;;;;;;2.92;1.20;;;26.20;97.30;;;;;;5117862;28;20028;-67